Flight Track Log - Related Links

Times and Time Zones

All times are in EDT time to prevent confusion due to time zone crossing. See the ANA9397 flight status page for this flight to view local times or setup timezone preferences in your user account.

Time Position Orientation Groundspeed Altitude Reporting Facility
EDT Latitude Longitude Course Direction KTS MPH feet Rate Location/Type
Fri 06:07:26 PM 61.1946 -150.0116 343° North 165 190 1,200  Level FlightAware ADS-B
Fri 06:07:47 PM 61.2095 -150.0272 324° Northwest 167 192 2,200 2,927 Climbing FlightAware ADS-B
Fri 06:08:07 PM 61.2220 -150.0508 316° Northwest 180 207 3,200 2,842 Climbing FlightAware ADS-B
Fri 06:08:25 PM 61.2331 -150.0728 316° Northwest 187 215 4,000 2,294 Climbing FlightAware ADS-B
Fri 06:08:41 PM 61.2422 -150.0914 314° West 208 239 4,500 1,565 Climbing FlightAware ADS-B
Fri 06:08:48 PM 61.2470 -150.1054 302° West 221 254 4,600 1,200 Climbing FlightAware ADS-B
Fri 06:08:56 PM 61.2493 -150.1203 282° West 231 266 4,800 2,526 Climbing FlightAware ADS-B
Fri 06:09:07 PM 61.2499 -150.1475 268° West 234 269 5,400 3,400 Climbing FlightAware ADS-B
Fri 06:09:26 PM 61.2489 -150.1896 268° West 233 268 6,500 2,780 Climbing FlightAware ADS-B
Fri 06:09:48 PM 61.2488 -150.2402 271° West 259 298 7,300 2,429 Climbing FlightAware ADS-B
Fri 06:10:08 PM 61.2499 -150.2887 273° West 274 315 8,200 3,158 Climbing FlightAware ADS-B
Fri 06:10:26 PM 61.2511 -150.3298 273° West 278 320 9,300 3,625 Climbing FlightAware ADS-B
Fri 06:10:56 PM 61.2535 -150.4189 273° West 282 325 11,100 3,200 Climbing FlightAware ADS-B
Fri 06:11:26 PM 61.2556 -150.4996 273° West 295 339 12,500 2,900 Climbing FlightAware ADS-B
Fri 06:11:56 PM 61.2577 -150.5888 273° West 306 352 14,000 3,000 Climbing FlightAware ADS-B
Fri 06:12:28 PM 61.2599 -150.6836 273° West 313 360 15,600 2,917 Climbing FlightAware ADS-B
Fri 06:13:08 PM 61.2626 -150.8067 273° West 324 373 17,500 2,795 Climbing FlightAware ADS-B
Fri 06:13:41 PM 61.2648 -150.9100 272° West 330 380 19,000 2,667 Climbing FlightAware ADS-B
Fri 06:14:11 PM 61.2668 -151.0058 273° West 336 387 20,300 2,500 Climbing FlightAware ADS-B
Fri 06:14:41 PM 61.2687 -151.1019 272° West 344 396 21,500 2,361 Climbing FlightAware ADS-B
Fri 06:15:12 PM 61.2707 -151.2064 272° West 350 403 22,700 2,364 Climbing FlightAware ADS-B
Fri 06:15:47 PM 61.2728 -151.3223 272° West 356 410 24,100 2,273 Climbing FlightAware ADS-B
Fri 06:16:18 PM 61.2747 -151.4312 272° West 361 415 25,200 2,066 Climbing FlightAware ADS-B
Fri 06:16:48 PM 61.2764 -151.5329 272° West 367 422 26,200 2,100 Climbing FlightAware ADS-B
Fri 06:17:18 PM 61.2782 -151.6424 272° West 370 426 27,300 2,100 Climbing FlightAware ADS-B
Fri 06:17:48 PM 61.2796 -151.7374 272° West 373 429 28,300 2,000 Climbing FlightAware ADS-B
Fri 06:18:18 PM 61.2813 -151.8552 272° West 376 433 29,300 1,800 Climbing FlightAware ADS-B
Fri 06:18:48 PM 61.2828 -151.9594 272° West 380 437 30,100 1,600 Climbing FlightAware ADS-B
Fri 06:19:18 PM 61.2840 -152.0756 271° West 384 442 30,900 1,475 Climbing FlightAware ADS-B
Fri 06:19:49 PM 61.2844 -152.1871 270° West 389 448 31,600 1,279 Climbing FlightAware ADS-B
Fri 06:20:19 PM 61.2848 -152.3034 270° West 397 457 32,200 1,147 Climbing FlightAware ADS-B
Fri 06:20:57 PM 61.2851 -152.4483 270° West 405 466 32,900 1,059 Climbing FlightAware ADS-B
Fri 06:21:27 PM 61.2855 -152.5592 270° West 412 474 33,400 1,000 Climbing FlightAware ADS-B
Fri 06:21:57 PM 61.2858 -152.6877 270° West 416 479 33,900 1,082 Climbing FlightAware ADS-B
Fri 06:22:28 PM 61.2860 -152.8044 270° West 420 483 34,500 1,082 Climbing FlightAware ADS-B
Fri 06:22:58 PM 61.2860 -152.9325 270° West 424 488 35,000 1,000 Climbing FlightAware ADS-B
Fri 06:23:28 PM 61.2859 -153.0522 270° West 426 490 35,500 900 Climbing FlightAware ADS-B
Fri 06:23:58 PM 61.2856 -153.1772 270° West 430 495 35,900 700 Climbing FlightAware ADS-B
Fri 06:24:28 PM 61.2853 -153.2994 270° West 435 501 36,200 700 Climbing FlightAware ADS-B
Fri 06:24:58 PM 61.2848 -153.4259 270° West 439 505 36,600 700 Climbing FlightAware ADS-B
Fri 06:25:28 PM 61.2843 -153.5550 270° West 444 511 36,900 800 Climbing FlightAware ADS-B
Fri 06:25:58 PM 61.2837 -153.6804 269° West 445 512 37,400 1,000 Climbing FlightAware ADS-B
Fri 06:26:28 PM 61.2828 -153.8097 269° West 443 510 37,900 900 Climbing FlightAware ADS-B
Fri 06:26:58 PM 61.2819 -153.9325 269° West 441 507 38,300 800 Climbing FlightAware ADS-B
Fri 06:27:28 PM 61.2809 -154.0581 269° West 441 507 38,700 800 Climbing FlightAware ADS-B
Fri 06:27:58 PM 61.2798 -154.1797 269° West 441 507 39,100 689 Climbing FlightAware ADS-B
Fri 06:28:29 PM 61.2784 -154.3184 269° West 440 506 39,400 492 Climbing FlightAware ADS-B
Fri 06:28:59 PM 61.2769 -154.4477 269° West 442 509 39,600 300 Climbing FlightAware ADS-B
Fri 06:29:29 PM 61.2755 -154.5694 268° West 443 510 39,700 200 Climbing FlightAware ADS-B
Fri 06:29:59 PM 61.2739 -154.6971 268° West 441 507 39,800 200 Climbing FlightAware ADS-B
Fri 06:30:29 PM 61.2721 -154.8226 268° West 439 505 39,900 100 Climbing FlightAware ADS-B
Fri 06:30:59 PM 61.2701 -154.9486 268° West 439 505 39,900 80 Level FlightAware ADS-B
Fri 06:31:44 PM 61.2670 -155.1402 268° West 438 504 40,000 80 Climbing FlightAware ADS-B
Fri 06:32:14 PM 61.2649 -155.2655 268° West 441 507 40,000  Level FlightAware ADS-B
Fri 06:32:59 PM 61.2615 -155.4570 268° West 443 510 40,000  Level FlightAware ADS-B
Fri 06:33:29 PM 61.2591 -155.5812 268° West 443 510 40,000  Level FlightAware ADS-B
Fri 06:33:59 PM 61.2563 -155.7130 267° West 444 511 40,000  Level FlightAware ADS-B
Fri 06:34:30 PM 61.2539 -155.8262 267° West 445 512 40,000  Level FlightAware ADS-B
Fri 06:35:14 PM 61.2502 -156.0324 271° West 445 512 40,000  Level FlightAware ADS-B
Fri 06:36:31 PM 61.2520 -156.3588 271° West 448 516 40,000  Level FlightAware ADS-B
Fri 06:37:17 PM 61.2525 -156.5440 270° West 448 516 40,000  Level FlightAware ADS-B
Fri 06:37:50 PM 61.2528 -156.6964 270° West 449 517 40,000  Level FlightAware ADS-B
Fri 06:38:38 PM 61.2500 -156.8333 270° West 440 506 40,000  Level Anchorage Center
Fri 06:39:38 PM 61.2500 -157.1000 270° West 440 506 40,000  Level Anchorage Center
Fri 06:40:38 PM 61.2500 -157.3500 270° West 440 506 40,000  Level Anchorage Center
Fri 06:41:38 PM 61.2500 -157.6167 270° West 440 506 40,000  Level Anchorage Center
Fri 06:42:38 PM 61.2500 -157.8667 270° West 440 506 40,000  Level Anchorage Center
Fri 06:43:38 PM 61.2333 -158.1333 263° West 440 506 40,000  Level Anchorage Center
Fri 06:44:39 PM 61.2333 -158.3833 270° West 440 506 40,000  Level Anchorage Center
Fri 06:45:39 PM 61.2333 -158.6333 270° West 440 506 40,000  Level Anchorage Center
Fri 06:46:39 PM 61.2333 -158.9000 270° West 440 506 40,000  Level Anchorage Center
Fri 06:47:39 PM 61.2333 -159.1500 270° West 440 506 40,000  Level Anchorage Center
Fri 06:48:39 PM 61.2167 -159.4167 263° West 440 506 40,000  Level Anchorage Center
Fri 06:49:39 PM 61.2167 -159.6667 270° West 440 506 40,000  Level Anchorage Center
Fri 06:50:39 PM 61.2167 -159.9167 270° West 450 518 40,000  Level Anchorage Center
Fri 06:51:39 PM 61.2167 -160.1833 270° West 440 506 40,000  Level Anchorage Center
Fri 06:52:39 PM 61.2000 -160.4333 262° West 450 518 40,000  Level Anchorage Center
Fri 06:53:39 PM 61.2000 -160.7167 270° West 440 506 40,000  Level Anchorage Center
Fri 06:54:39 PM 61.1833 -160.9833 263° West 450 518 40,000  Level Anchorage Center
Fri 06:55:40 PM 61.1833 -161.2333 270° West 430 495 40,000  Level Anchorage Center
Fri 06:56:40 PM 61.1667 -161.4833 262° West 440 506 40,000  Level Anchorage Center
Fri 06:57:40 PM 61.1667 -161.7500 270° West 440 506 40,000  Level Anchorage Center
Fri 06:58:40 PM 61.1500 -162.0000 262° West 440 506 40,000  Level Anchorage Center
Fri 06:59:40 PM 61.1333 -162.2500 262° West 440 506 40,000  Level Anchorage Center
Fri 07:00:40 PM 61.1333 -162.5000 270° West 430 495 40,000  Level Anchorage Center
Fri 07:01:40 PM 61.1167 -162.7667 263° West 440 506 40,000  Level Anchorage Center
Fri 07:02:40 PM 61.1000 -163.0167 262° West 440 506 40,000  Level Anchorage Center
Fri 07:03:40 PM 61.0667 -163.2667 255° West 430 495 40,000  Level Anchorage Center
Fri 07:04:41 PM 61.0333 -163.5000 254° West 430 495 40,000  Level Anchorage Center
Fri 07:05:40 PM 61.0000 -163.7500 255° West 440 506 40,000  Level Anchorage Center
Fri 07:06:41 PM 60.9667 -164.0000 255° West 440 506 40,000  Level Anchorage Center
Fri 07:07:41 PM 60.9333 -164.2500 255° West 440 506 40,000  Level Anchorage Center
Fri 07:08:41 PM 60.8833 -164.4833 246° West 440 506 40,000  Level Anchorage Center
Fri 07:09:41 PM 60.8500 -164.7333 255° West 440 506 40,000  Level Anchorage Center
Fri 07:10:41 PM 60.8167 -164.9833 255° West 450 518 40,000  Level Anchorage Center
Fri 07:11:41 PM 60.7833 -165.2167 254° West 440 506 40,000  Level Anchorage Center
Fri 07:12:41 PM 60.7333 -165.4667 248° West 440 506 40,000  Level Anchorage Center
Fri 07:13:41 PM 60.7000 -165.7000 254° West 440 506 40,000  Level Anchorage Center
Fri 07:14:42 PM 60.6667 -165.9500 255° West 440 506 40,000  Level Anchorage Center
Fri 07:15:58 PM 60.6167 -166.2333 250° West 440 506 40,000  Level Anchorage Center
Fri 07:16:58 PM 60.5833 -166.4667 254° West 440 506 40,000  Level Anchorage Center
Fri 07:17:58 PM 60.5333 -166.7167 248° West 440 506 40,000  Level Anchorage Center
Fri 07:18:59 PM 60.4833 -166.9500 247° West 450 518 40,000  Level Anchorage Center
Fri 07:19:59 PM 60.4500 -167.2000 255° West 450 518 40,000  Level Anchorage Center
Fri 07:20:58 PM 60.4000 -167.4333 247° West 440 506 40,000  Level Anchorage Center
Fri 07:21:59 PM 60.3667 -167.6667 254° West 450 518 40,000  Level Anchorage Center
Fri 07:22:59 PM 60.3167 -167.9167 248° West 450 518 40,000  Level Anchorage Center
Fri 07:23:59 PM 60.2833 -168.1500 254° West 450 518 40,000  Level Anchorage Center
Fri 07:24:59 PM 60.2333 -168.3833 247° West 440 506 40,000  Level Anchorage Center
Fri 07:25:59 PM 60.1833 -168.6167 247° West 440 506 40,000  Level Anchorage Center
Fri 07:26:59 PM 60.1500 -168.8500 254° West 440 506 40,000  Level Anchorage Center
Fri 07:27:59 PM 60.1000 -169.0833 247° West 440 506 40,000  Level Anchorage Center
Fri 07:28:59 PM 60.0667 -169.3167 254° West 450 518 40,000  Level Anchorage Center
Fri 07:29:59 PM 60.0167 -169.5500 247° West 450 518 40,000  Level Anchorage Center
Fri 07:30:59 PM 59.9667 -169.7833 247° West 440 506 40,000  Level Anchorage Center
Fri 07:31:59 PM 59.9167 -170.0167 247° West 450 518 40,000  Level Anchorage Center
Fri 07:32:59 PM 59.8833 -170.2500 254° West 440 506 40,000  Level Anchorage Center
Fri 07:33:59 PM 59.8333 -170.4833 247° West 430 495 40,000  Level Anchorage Center
Fri 07:34:59 PM 59.7833 -170.7167 247° West 440 506 40,000  Level Anchorage Center
Fri 07:35:59 PM 59.7333 -170.9500 247° West 440 506 40,000  Level Anchorage Center
Fri 07:36:59 PM 59.6833 -171.1833 247° West 450 518 40,000  Level Anchorage Center
Fri 07:38:00 PM 59.6333 -171.4000 246° West 440 506 40,000  Level Anchorage Center
Fri 07:38:59 PM 59.5833 -171.6167 246° West 430 495 40,000  Level Anchorage Center
Fri 07:40:00 PM 59.5333 -171.8500 247° West 440 506 40,000  Level Anchorage Center
Fri 07:41:00 PM 59.5000 -172.0667 253° West 440 506 40,000  Level Anchorage Center
Fri 07:42:00 PM 59.4500 -172.3000 247° West 450 518 40,000  Level Anchorage Center
Fri 07:43:00 PM 59.4000 -172.5333 247° West 440 506 40,000  Level Anchorage Center
Fri 07:44:00 PM 59.3500 -172.7500 246° West 440 506 40,000  Level Anchorage Center
Fri 07:46:00 PM 59.2500 -173.2167 249° West 460 529 40,000  Level Anchorage Center
Fri 07:47:00 PM 59.2000 -173.4500 247° West 460 529 40,000  Level Anchorage Center
Fri 07:48:00 PM 59.1500 -173.6833 247° West 450 518 40,000  Level Anchorage Center
Fri 07:49:00 PM 59.1167 -173.8667 251° West 450 518 40,000  Level Anchorage Center
Fri 07:50:00 PM 59.0500 -174.1500 246° West 450 518 40,000  Level Anchorage Center
Fri 07:51:00 PM 59.0167 -174.3167 249° West 450 518 40,000  Level Anchorage Center
Fri 07:52:00 PM 58.9667 -174.5500 248° West 450 518 40,000  Level Anchorage Center
Fri 07:53:01 PM 58.9167 -174.7667 246° West 450 518 40,000  Level Anchorage Center
Fri 07:54:00 PM 58.8667 -175.0000 248° West 450 518 40,000  Level Anchorage Center
Fri 07:55:00 PM 58.8167 -175.2167 246° West 450 518 40,000  Level Anchorage Center
Fri 07:56:00 PM 58.7667 -175.4333 246° West 440 506 40,000  Level Anchorage Center
Fri 07:57:01 PM 58.7167 -175.6500 246° West 430 495 40,000  Level Anchorage Center
Fri 07:58:01 PM 58.6667 -175.8667 246° West 440 506 40,000  Level Anchorage Center
Fri 07:59:00 PM 58.6167 -176.0833 246° West 440 506 40,000  Level Anchorage Center
Fri 08:00:01 PM 58.5667 -176.3000 246° West 440 506 40,000  Level Anchorage Center
Fri 08:01:01 PM 58.5167 -176.5167 246° West 440 506 40,000  Level Anchorage Center
Fri 08:02:01 PM 58.4667 -176.7167 245° Southwest 440 506 40,000  Level Anchorage Center
Fri 08:03:01 PM 58.4167 -176.9333 246° West 440 506 40,000  Level Anchorage Center
Fri 08:04:01 PM 58.3500 -177.1500 240° Southwest 450 518 40,000  Level Anchorage Center
Fri 08:40:03 PM 56.2667 175.6667 238° Southwest 440 506 40,000  Level Anchorage Center
Fri 08:41:00 PM 56.3963 176.0393 239° Southwest  Level FlightAware Approximate
Fri 08:41:03 PM 56.2167 175.5167 239° Southwest 430 495 40,000  Level Anchorage Center
Fri 08:42:00 PM 56.3365 175.8608 239° Southwest  Level FlightAware Approximate
Fri 08:42:03 PM 56.1500 175.3167 239° Southwest 430 495 40,000  Level Anchorage Center
Fri 08:43:00 PM 56.2765 175.6829 239° Southwest  Level FlightAware Approximate
Fri 08:43:03 PM 56.1000 175.1500 242° Southwest 430 495 40,000  Level Anchorage Center
Fri 08:44:00 PM 56.2162 175.5055 239° Southwest  Level FlightAware Approximate
Fri 08:44:03 PM 56.0167 174.9500 233° Southwest 430 495 40,000  Level Anchorage Center
Fri 08:45:00 PM 56.1557 175.3287 238° Southwest  Level FlightAware Approximate
Fri 08:45:04 PM 55.9500 174.7500 239° Southwest 440 506 40,000  Level Anchorage Center
Fri 08:46:03 PM 55.9000 174.5833 242° Southwest 430 495 40,000  Level Anchorage Center
Fri 08:47:04 PM 55.8333 174.3833 239° Southwest 430 495 40,000  Level Anchorage Center
Fri 08:48:04 PM 55.7833 174.2333 239° Southwest 420 483 40,000  Level Anchorage Center
Fri 08:49:04 PM 55.7000 174.0667 228° Southwest 410 472 40,000  Level Anchorage Center
Fri 08:50:04 PM 55.6500 173.9167 239° Southwest 410 472 40,000  Level Anchorage Center
Fri 08:51:04 PM 55.5833 173.7167 240° Southwest 410 472 40,000  Level Anchorage Center
Fri 08:52:04 PM 55.5333 173.5667 240° Southwest 420 483 40,000  Level Anchorage Center
Fri 08:53:04 PM 55.4667 173.3833 237° Southwest 410 472 40,000  Level Anchorage Center
Fri 08:54:04 PM 55.4000 173.2000 237° Southwest 410 472 40,000  Level Anchorage Center
Fri 08:55:04 PM 55.3333 173.0667 229° Southwest 410 472 40,000  Level Anchorage Center
Fri 08:56:04 PM 55.2667 172.8833 238° Southwest 410 472 40,000  Level Anchorage Center
Fri 08:57:04 PM 55.2167 172.7333 240° Southwest 410 472 40,000  Level Anchorage Center
Fri 08:58:04 PM 55.1500 172.5500 238° Southwest 410 472 40,000  Level Anchorage Center
Fri 08:59:04 PM 55.1000 172.4167 237° Southwest 410 472 40,000  Level Anchorage Center
Fri 09:00:05 PM 55.0167 172.2333 232° Southwest 420 483 40,000  Level Anchorage Center
Fri 09:01:04 PM 54.9667 172.0833 240° Southwest 410 472 40,000  Level Anchorage Center
Fri 09:02:04 PM 54.9000 171.9000 238° Southwest 420 483 40,000  Level Anchorage Center
Fri 09:03:05 PM 54.8167 171.7333 229° Southwest 410 472 40,000  Level Anchorage Center
Fri 09:04:05 PM 54.7667 171.6000 237° Southwest 410 472 40,000  Level Anchorage Center
Fri 09:05:05 PM 54.6833 171.4167 232° Southwest 420 483 40,000  Level Anchorage Center
Fri 09:06:05 PM 54.6333 171.2667 240° Southwest 410 472 40,000  Level Anchorage Center
Fri 09:07:05 PM 54.5667 171.1000 235° Southwest 410 472 40,000  Level Anchorage Center
Fri 09:08:05 PM 54.5000 170.9500 233° Southwest 440 506 40,000  Level Anchorage Center
Fri 09:09:05 PM 54.4167 170.7833 229° Southwest 410 472 40,000  Level Anchorage Center
Fri 09:10:05 PM 54.3500 170.6333 233° Southwest 390 449 40,000  Level Anchorage Center
Fri 09:11:05 PM 54.3000 170.5000 237° Southwest 420 483 40,000  Level Anchorage Center
Fri 09:12:05 PM 54.2167 170.3333 230° Southwest 400 460 40,000  Level Anchorage Center
Fri 09:13:05 PM 54.1833 170.2000 247° West 360 414 40,000  Level Anchorage Center
Fri 09:14:05 PM 54.1000 170.0333 230° Southwest 400 460 40,000  Level Anchorage Center
Fri 09:15:05 PM 54.0500 169.9167 234° Southwest 390 449 40,000  Level Anchorage Center
Fri 09:16:05 PM 53.9833 169.7667 233° Southwest 380 437 40,000  Level Anchorage Center
Fri 09:17:05 PM 53.9333 169.6500 234° Southwest 370 426 40,000  Level Anchorage Center
Fri 09:18:05 PM 53.8667 169.5000 233° Southwest 370 426 40,000  Level Anchorage Center
Fri 09:19:05 PM 53.7833 169.3500 227° Southwest 370 426 40,000  Level Anchorage Center
Fri 09:20:06 PM 53.7333 169.2333 234° Southwest 370 426 40,000  Level Anchorage Center
Fri 09:21:06 PM 53.6833 169.0667 243° Southwest 390 449 40,000  Level Anchorage Center
Fri 09:22:06 PM 53.6333 168.9333 238° Southwest 380 437 40,000  Level Anchorage Center
Fri 09:23:06 PM 53.5833 168.7833 241° Southwest 380 437 40,000  Level Anchorage Center
Fri 09:24:06 PM 53.5500 168.6500 247° West 390 449 40,000  Level Anchorage Center
Fri 09:25:06 PM 53.4833 168.4833 236° Southwest 370 426 40,000  Level Anchorage Center
Fri 09:28:31 PM 53.3000 167.9500 240° Southwest 410 472 40,000  Level Anchorage Center
Fri 09:30:00 PM 53.2148 167.7066 240° Southwest  Level FlightAware Approximate
Fri 09:37:00 PM 52.8064 166.5708 240° Southwest  Level FlightAware Approximate
Fri 09:38:00 PM 52.7471 166.4103 239° Southwest  Level FlightAware Approximate
Fri 09:39:00 PM 52.6877 166.2502 239° Southwest  Level FlightAware Approximate
Fri 09:40:00 PM 52.6280 166.0906 238° Southwest  Level FlightAware Approximate
Fri 09:41:00 PM 52.5681 165.9314 238° Southwest  Level FlightAware Approximate
Fri 09:42:00 PM 52.5077 165.7730 238° Southwest  Level FlightAware Approximate
Fri 09:43:00 PM 52.4469 165.6152 238° Southwest  Level FlightAware Approximate
Fri 09:44:00 PM 52.3858 165.4579 238° Southwest  Level FlightAware Approximate
Fri 09:45:00 PM 52.3246 165.3009 237° Southwest  Level FlightAware Approximate
Fri 09:46:00 PM 52.2631 165.1445 237° Southwest  Level FlightAware Approximate
Fri 09:47:00 PM 52.2015 164.9884 237° Southwest  Level FlightAware Approximate
Fri 09:48:00 PM 52.1396 164.8328 237° Southwest  Level FlightAware Approximate
Fri 09:49:00 PM 52.0776 164.6776 237° Southwest  Level FlightAware Approximate
Fri 09:50:00 PM 52.0153 164.5229 237° Southwest  Level FlightAware Approximate
Fri 09:51:00 PM 51.9528 164.3686 237° Southwest  Level FlightAware Approximate
Fri 09:52:00 PM 51.8902 164.2147 237° Southwest  Level FlightAware Approximate
Fri 09:53:00 PM 51.8273 164.0612 237° Southwest  Level FlightAware Approximate
Fri 09:54:00 PM 51.7642 163.9082 236° Southwest  Level FlightAware Approximate
Fri 09:55:00 PM 51.7010 163.7556 236° Southwest  Level FlightAware Approximate
Fri 09:56:00 PM 51.6375 163.6034 236° Southwest  Level FlightAware Approximate
Fri 09:57:00 PM 51.5740 163.4515 236° Southwest  Level FlightAware Approximate
Fri 09:58:00 PM 51.5103 163.3000 236° Southwest  Level FlightAware Approximate
Fri 09:59:00 PM 51.4463 163.1490 236° Southwest  Level FlightAware Approximate
Fri 10:00:00 PM 51.3822 162.9984 236° Southwest  Level FlightAware Approximate
Fri 10:01:00 PM 51.3179 162.8482 236° Southwest  Level FlightAware Approximate
Fri 10:02:00 PM 51.2534 162.6984 236° Southwest  Level FlightAware Approximate
Fri 10:03:00 PM 51.1887 162.5491 235° Southwest  Level FlightAware Approximate
Fri 10:04:00 PM 51.1239 162.4001 235° Southwest  Level FlightAware Approximate
Fri 10:05:00 PM 51.0588 162.2516 235° Southwest  Level FlightAware Approximate
Fri 10:06:00 PM 50.9935 162.1035 235° Southwest  Level FlightAware Approximate
Fri 10:07:00 PM 50.9281 161.9558 235° Southwest  Level FlightAware Approximate
Fri 10:08:00 PM 50.8624 161.8086 235° Southwest  Level FlightAware Approximate
Fri 10:09:00 PM 50.7966 161.6617 235° Southwest  Level FlightAware Approximate
Fri 10:10:00 PM 50.7306 161.5153 235° Southwest  Level FlightAware Approximate
Fri 10:11:00 PM 50.6645 161.3692 234° Southwest  Level FlightAware Approximate
Fri 10:12:00 PM 50.5981 161.2236 234° Southwest  Level FlightAware Approximate
Fri 10:13:00 PM 50.5316 161.0784 234° Southwest  Level FlightAware Approximate
Fri 10:14:00 PM 50.4648 160.9336 234° Southwest  Level FlightAware Approximate
Fri 10:15:00 PM 50.3979 160.7892 234° Southwest  Level FlightAware Approximate
Fri 10:16:00 PM 50.3308 160.6453 234° Southwest  Level FlightAware Approximate
Fri 10:17:00 PM 50.2636 160.5017 234° Southwest  Level FlightAware Approximate
Fri 10:18:00 PM 50.1962 160.3585 234° Southwest  Level FlightAware Approximate
Fri 10:19:00 PM 50.1291 160.2151 234° Southwest  Level FlightAware Approximate
Fri 10:20:00 PM 50.0619 160.0721 234° Southwest  Level FlightAware Approximate
Fri 10:21:00 PM 49.9945 159.9296 234° Southwest  Level FlightAware Approximate
Fri 10:22:00 PM 49.9269 159.7874 234° Southwest  Level FlightAware Approximate
Fri 10:23:00 PM 49.8591 159.6456 233° Southwest  Level FlightAware Approximate
Fri 10:24:00 PM 49.7912 159.5042 233° Southwest  Level FlightAware Approximate
Fri 10:25:00 PM 49.7231 159.3632 233° Southwest  Level FlightAware Approximate
Fri 10:26:00 PM 49.6544 159.2401 233° Southwest  Level FlightAware Approximate
Fri 10:27:00 PM 49.5858 159.1001 233° Southwest  Level FlightAware Approximate
Fri 10:28:00 PM 49.5170 158.9605 233° Southwest  Level FlightAware Approximate
Fri 10:29:00 PM 49.4480 158.8214 233° Southwest  Level FlightAware Approximate
Fri 10:30:00 PM 49.3788 158.6826 233° Southwest  Level FlightAware Approximate
Fri 10:31:00 PM 49.3095 158.5442 232° Southwest  Level FlightAware Approximate
Fri 10:32:00 PM 49.2400 158.4062 232° Southwest  Level FlightAware Approximate
Fri 10:33:00 PM 49.1703 158.2686 232° Southwest  Level FlightAware Approximate
Fri 10:34:00 PM 49.1005 158.1314 232° Southwest  Level FlightAware Approximate
Fri 10:35:00 PM 49.0305 157.9945 232° Southwest  Level FlightAware Approximate
Fri 10:36:00 PM 48.9604 157.8581 232° Southwest  Level FlightAware Approximate
Fri 10:37:00 PM 48.8901 157.7220 232° Southwest  Level FlightAware Approximate
Fri 10:38:00 PM 48.8196 157.5863 232° Southwest  Level FlightAware Approximate
Fri 10:39:00 PM 48.7490 157.4510 232° Southwest  Level FlightAware Approximate
Fri 10:40:00 PM 48.6782 157.3161 232° Southwest  Level FlightAware Approximate
Fri 10:41:00 PM 48.6073 157.1816 231° Southwest  Level FlightAware Approximate
Fri 10:42:00 PM 48.5362 157.0474 231° Southwest  Level FlightAware Approximate
Fri 10:43:00 PM 48.4650 156.9136 231° Southwest  Level FlightAware Approximate
Fri 10:44:00 PM 48.3936 156.7802 231° Southwest  Level FlightAware Approximate
Fri 10:45:00 PM 48.3220 156.6472 231° Southwest  Level FlightAware Approximate
Fri 10:46:00 PM 48.2503 156.5145 231° Southwest  Level FlightAware Approximate
Fri 10:47:00 PM 48.1784 156.3822 231° Southwest  Level FlightAware Approximate
Fri 10:48:00 PM 48.1064 156.2503 231° Southwest  Level FlightAware Approximate
Fri 10:49:00 PM 48.0343 156.1187 231° Southwest  Level FlightAware Approximate
Fri 10:50:00 PM 47.9620 155.9875 231° Southwest  Level FlightAware Approximate
Fri 10:51:00 PM 47.8895 155.8567 230° Southwest  Level FlightAware Approximate
Fri 10:52:00 PM 47.8169 155.7263 230° Southwest  Level FlightAware Approximate
Fri 10:53:00 PM 47.7441 155.5962 230° Southwest  Level FlightAware Approximate
Fri 10:54:00 PM 47.6712 155.4664 230° Southwest  Level FlightAware Approximate
Fri 10:55:00 PM 47.5982 155.3371 230° Southwest  Level FlightAware Approximate
Fri 10:56:00 PM 47.5250 155.2081 230° Southwest  Level FlightAware Approximate
Fri 10:57:00 PM 47.4516 155.0794 230° Southwest  Level FlightAware Approximate
Fri 10:58:00 PM 47.3782 154.9512 230° Southwest  Level FlightAware Approximate
Fri 10:59:00 PM 47.3045 154.8232 230° Southwest  Level FlightAware Approximate
Fri 11:00:00 PM 47.2308 154.6956 230° Southwest  Level FlightAware Approximate
Fri 11:01:00 PM 47.1569 154.5684 230° Southwest  Level FlightAware Approximate
Fri 11:02:00 PM 47.0828 154.4416 229° Southwest  Level FlightAware Approximate
Fri 11:03:00 PM 47.0086 154.3151 229° Southwest  Level FlightAware Approximate
Fri 11:04:00 PM 46.9343 154.1889 229° Southwest  Level FlightAware Approximate
Fri 11:05:00 PM 46.8598 154.0631 229° Southwest  Level FlightAware Approximate
Fri 11:06:00 PM 46.7852 153.9376 229° Southwest  Level FlightAware Approximate
Fri 11:07:00 PM 46.7105 153.8125 229° Southwest  Level FlightAware Approximate
Fri 11:08:00 PM 46.6356 153.6878 229° Southwest  Level FlightAware Approximate
Fri 11:09:00 PM 46.5606 153.5634 229° Southwest  Level FlightAware Approximate
Fri 11:10:00 PM 46.4855 153.4393 229° Southwest  Level FlightAware Approximate
Fri 11:11:00 PM 46.4102 153.3155 229° Southwest  Level FlightAware Approximate
Fri 11:12:00 PM 46.3348 153.1922 229° Southwest  Level FlightAware Approximate
Fri 11:13:00 PM 46.2592 153.0691 228° Southwest  Level FlightAware Approximate
Fri 11:14:00 PM 46.1833 152.9467 228° Southwest  Level FlightAware Approximate
Fri 11:15:00 PM 46.1069 152.8251 228° Southwest  Level FlightAware Approximate
Fri 11:16:00 PM 46.0304 152.7038 228° Southwest  Level FlightAware Approximate
Fri 11:17:00 PM 45.9538 152.5828 228° Southwest  Level FlightAware Approximate
Fri 11:18:00 PM 45.8770 152.4622 228° Southwest  Level FlightAware Approximate
Fri 11:19:00 PM 45.8001 152.3419 228° Southwest  Level FlightAware Approximate
Fri 11:20:00 PM 45.7231 152.2220 227° Southwest  Level FlightAware Approximate
Fri 11:21:00 PM 45.6460 152.1023 227° Southwest  Level FlightAware Approximate
Fri 11:22:00 PM 45.5687 151.9830 227° Southwest  Level FlightAware Approximate
Fri 11:23:00 PM 45.4913 151.8641 227° Southwest  Level FlightAware Approximate
Fri 11:24:00 PM 45.4138 151.7454 227° Southwest  Level FlightAware Approximate
Fri 11:25:00 PM 45.3362 151.6271 227° Southwest  Level FlightAware Approximate
Fri 11:26:00 PM 45.2584 151.5091 227° Southwest  Level FlightAware Approximate
Fri 11:27:00 PM 45.1805 151.3914 227° Southwest  Level FlightAware Approximate
Fri 11:28:00 PM 45.1026 151.2741 227° Southwest  Level FlightAware Approximate
Fri 11:29:00 PM 45.0244 151.1571 227° Southwest  Level FlightAware Approximate
Fri 11:30:00 PM 44.9462 151.0403 227° Southwest  Level FlightAware Approximate
Fri 11:31:00 PM 44.8678 150.9240 226° Southwest  Level FlightAware Approximate
Fri 11:32:00 PM 44.7894 150.8079 226° Southwest  Level FlightAware Approximate
Fri 11:33:00 PM 44.7108 150.6921 226° Southwest  Level FlightAware Approximate
Fri 11:34:00 PM 44.6321 150.5767 226° Southwest  Level FlightAware Approximate
Fri 11:35:00 PM 44.5532 150.4615 226° Southwest  Level FlightAware Approximate
Fri 11:36:00 PM 44.4743 150.3467 226° Southwest  Level FlightAware Approximate
Fri 11:37:00 PM 44.3952 150.2322 226° Southwest  Level FlightAware Approximate
Fri 11:38:00 PM 44.3161 150.1180 226° Southwest  Level FlightAware Approximate
Fri 11:39:00 PM 44.2368 150.0041 226° Southwest  Level FlightAware Approximate
Fri 11:40:00 PM 44.1574 149.8905 226° Southwest  Level FlightAware Approximate
Fri 11:41:00 PM 44.0779 149.7773 226° Southwest  Level FlightAware Approximate
Fri 11:42:00 PM 43.9983 149.6643 226° Southwest  Level FlightAware Approximate
Fri 11:43:00 PM 43.9185 149.5516 226° Southwest  Level FlightAware Approximate
Fri 11:44:00 PM 43.8387 149.4392 225° Southwest  Level FlightAware Approximate
Fri 11:45:00 PM 43.7588 149.3272 225° Southwest  Level FlightAware Approximate
Fri 11:46:00 PM 43.6787 149.2154 225° Southwest  Level FlightAware Approximate
Fri 11:47:00 PM 43.5985 149.1039 225° Southwest  Level FlightAware Approximate
Fri 11:48:00 PM 43.5183 148.9927 225° Southwest  Level FlightAware Approximate
Fri 11:49:00 PM 43.4379 148.8819 225° Southwest  Level FlightAware Approximate
Fri 11:50:00 PM 43.3574 148.7713 225° Southwest  Level FlightAware Approximate
Fri 11:51:00 PM 43.2768 148.6610 225° Southwest  Level FlightAware Approximate
Fri 11:52:00 PM 43.1961 148.5510 225° Southwest  Level FlightAware Approximate
Fri 11:53:00 PM 43.1153 148.4413 225° Southwest  Level FlightAware Approximate
Fri 11:54:00 PM 43.0344 148.3318 225° Southwest  Level FlightAware Approximate
Fri 11:55:00 PM 42.9534 148.2227 225° Southwest  Level FlightAware Approximate
Fri 11:56:00 PM 42.8722 148.1139 225° Southwest  Level FlightAware Approximate
Fri 11:57:00 PM 42.7910 148.0053 224° Southwest  Level FlightAware Approximate
Fri 11:58:00 PM 42.7097 147.8970 224° Southwest  Level FlightAware Approximate
Fri 11:59:00 PM 42.6283 147.7890 224° Southwest  Level FlightAware Approximate
Sat 12:00:00 AM 42.5467 147.6813 224° Southwest  Level FlightAware Approximate
Sat 12:01:00 AM 42.4651 147.5739 224° Southwest  Level FlightAware Approximate
Sat 12:02:00 AM 42.3834 147.4668 224° Southwest  Level FlightAware Approximate
Sat 12:03:00 AM 42.3024 147.3587 225° Southwest  Level FlightAware Approximate
Sat 12:04:00 AM 42.2213 147.2510 225° Southwest  Level FlightAware Approximate
Sat 12:05:00 AM 42.1401 147.1436 224° Southwest  Level FlightAware Approximate
Sat 12:06:00 AM 42.0588 147.0364 224° Southwest  Level FlightAware Approximate
Sat 12:07:00 AM 41.9774 146.9295 224° Southwest  Level FlightAware Approximate
Sat 12:08:00 AM 41.9256 146.8129 288° West  Level FlightAware Approximate
Sat 12:09:00 AM 41.9606 146.6674 288° West  Level FlightAware Approximate
Sat 12:10:00 AM 41.9954 146.5218 288° West  Level FlightAware Approximate
Sat 12:11:00 AM 42.0300 146.3760 288° West  Level FlightAware Approximate
Sat 12:12:00 AM 42.0645 146.2300 288° West  Level FlightAware Approximate
Sat 12:13:00 AM 42.0987 146.0839 288° West  Level FlightAware Approximate
Sat 12:14:00 AM 42.1328 145.9376 287° West  Level FlightAware Approximate
Sat 12:15:00 AM 42.1666 145.7912 287° West  Level FlightAware Approximate
Sat 12:16:00 AM 42.2003 145.6446 287° West  Level FlightAware Approximate
Sat 12:17:00 AM 42.2337 145.4978 283° West  Level FlightAware Approximate
Sat 12:18:00 AM 42.2615 145.3489 287° West  Level FlightAware Approximate
Sat 12:19:00 AM 42.2945 145.2018 287° West  Level FlightAware Approximate
Sat 12:20:00 AM 42.3272 145.0545 287° West  Level FlightAware Approximate
Sat 12:21:00 AM 42.3598 144.9071 287° West  Level FlightAware Approximate
Sat 12:22:00 AM 42.4004 144.7647 286° West  Level FlightAware Approximate
Sat 12:23:00 AM 42.4321 144.6168 286° West  Level FlightAware Approximate
Sat 12:24:00 AM 42.4636 144.4687 286° West  Level FlightAware Approximate
Sat 12:25:00 AM 42.4949 144.3204 286° West  Level FlightAware Approximate
Sat 12:26:00 AM 42.5242 144.1714 283° West  Level FlightAware Approximate
Sat 12:27:00 AM 42.5585 144.0246 290° West  Level FlightAware Approximate
Sat 12:28:00 AM 42.5927 143.8776 283° West  Level FlightAware Approximate
Sat 12:29:00 AM 42.6181 143.7270 287° West  Level FlightAware Approximate
Sat 12:30:00 AM 42.6511 143.5790 287° West  Level FlightAware Approximate
Sat 12:31:00 AM 42.6838 143.4309 285° West  Level FlightAware Approximate
Sat 12:32:00 AM 42.7168 143.2829 289° West  Level FlightAware Approximate
Sat 12:33:00 AM 42.7309 143.1318 268° West  Level FlightAware Approximate
Sat 12:34:00 AM 42.7264 142.9771 268° West  Level FlightAware Approximate
Sat 12:35:00 AM 42.7216 142.8224 268° West  Level FlightAware Approximate
Sat 12:36:00 AM 42.7167 142.6678 268° West  Level FlightAware Approximate
Sat 12:37:00 AM 42.7167 142.5130 270° West  Level FlightAware Approximate
Sat 12:38:00 AM 42.7126 142.3584 266° West  Level FlightAware Approximate
Sat 12:39:00 AM 42.7040 142.2041 266° West  Level FlightAware Approximate
Sat 12:40:00 AM 42.7001 142.0495 270° West  Level FlightAware Approximate
Sat 12:41:00 AM 42.7000 141.8947 270° West  Level FlightAware Approximate
Sat 12:42:00 AM 42.7000 141.7400 270° West  Level FlightAware Approximate
Sat 12:43:00 AM 42.7388 141.6833 North  Level FlightAware Approximate
Sat 12:44:00 AM 42.7667 141.6833 North  Level FlightAware Approximate
Sat 12:45:00 AM 42.7752 141.6923 North  Level Estimated
Sat 12:46:00 AM 42.7752 141.6923 North  Level Estimated
Sat 12:47:00 AM 42.7752 141.6923 North  Level Estimated
Sat 12:48:00 AM 42.7752 141.6923 North  Level Estimated
Sat 12:49:00 AM 42.7752 141.6923 North  Level Estimated
Sat 12:50:00 AM 42.7752 141.6923 North  Level Estimated
Sat 12:51:00 AM 42.7752 141.6923 North  Level Estimated
Sat 12:52:00 AM 42.7752 141.6923 North  Level Estimated
Sat 12:53:00 AM 42.7752 141.6923 North  Level Estimated
Sat 12:54:00 AM 42.7752 141.6923 North  Level Estimated
Sat 12:55:00 AM 42.7752 141.6923 North  Level Estimated
Sat 12:56:00 AM 42.7752 141.6923 North  Level Estimated
Sat 12:57:00 AM 42.7752 141.6923 North  Level Estimated
Sat 12:58:00 AM 42.7752 141.6923 North  Level Estimated
Sat 12:59:00 AM 42.7752 141.6923 North  Level Estimated
Sat 01:00:00 AM 42.7752 141.6923 North  Level Estimated
Sat 01:01:00 AM 42.7752 141.6923 North  Level Estimated
Sat 01:02:00 AM 42.7752 141.6923 North  Level Estimated
Sat 01:03:00 AM 42.7752 141.6923 North  Level Estimated
Sat 01:04:00 AM 42.7752 141.6923 North  Level Estimated
Sat 01:05:00 AM 42.7752 141.6923 North  Level Estimated

Login

Don't have an account? Register now (free) for customized features, flight alerts, and more!